Time;durP1;ratioP1;P1;durP2;ratioP2;P2;SDS_P1;SDS_P2;PMS_P1;PMS_P2;Temp;Humidity;BMP_temperature;BMP_pressure;BME280_temperature;BME280_humidity;BME280_pressure;Samples;Min_cycle;Max_cycle;Signal;HPM_P1;HPM_P2
2022/08/17 00:00:42;;;;;;;0.20;0.20;;;;;;;19.95;81.93;99947.25;5085299;28;20017;-63
2022/08/17 00:03:10;;;;;;;4.10;1.08;;;;;;;19.91;82.13;99945.69;5070626;28;20084;-63
2022/08/17 00:05:40;;;;;;;0.40;0.40;;;;;;;19.94;82.21;99950.78;5070432;28;20021;-64
2022/08/17 00:08:06;;;;;;;0.28;0.28;;;;;;;19.97;82.03;99948.00;5070279;28;20519;-63
2022/08/17 00:10:33;;;;;;;0.20;0.20;;;;;;;19.94;82.30;99942.88;5088455;28;20067;-63
2022/08/17 00:12:59;;;;;;;0.60;0.60;;;;;;;20.00;82.42;99947.81;5088314;28;20131;-61
2022/08/17 00:15:25;;;;;;;0.30;0.30;;;;;;;20.04;82.10;99952.03;5088016;28;20025;-63
2022/08/17 00:17:51;;;;;;;0.20;0.20;;;;;;;20.04;82.16;99951.16;5088300;28;20027;-63
2022/08/17 00:20:17;;;;;;;0.20;0.20;;;;;;;20.06;82.00;99955.41;5088411;28;20047;-63
2022/08/17 00:22:42;;;;;;;0.40;0.40;;;;;;;20.05;82.32;99956.34;5088249;28;20572;-63
2022/08/17 00:25:13;;;;;;;1.38;1.17;;;;;;;20.05;82.42;99948.44;5087936;28;20024;-63
2022/08/17 00:27:39;;;;;;;0.30;0.30;;;;;;;20.05;82.13;99953.72;5088159;28;20020;-63
2022/08/17 00:30:08;;;;;;;0.43;0.43;;;;;;;19.99;82.93;99956.66;5088068;28;20025;-63
2022/08/17 00:32:43;;;;;;;0.68;0.68;;;;;;;20.04;82.68;99964.34;5088084;28;20444;-64
2022/08/17 00:35:12;;;;;;;0.20;0.20;;;;;;;20.06;82.44;99958.03;5088086;28;20028;-64
2022/08/17 00:37:37;;;;;;;0.47;0.45;;;;;;;20.06;82.13;99965.13;5088067;28;20030;-63
2022/08/17 00:40:03;;;;;;;0.20;0.20;;;;;;;20.06;81.96;99955.41;5088011;28;20044;-62
2022/08/17 00:42:29;;;;;;;0.93;0.93;;;;;;;20.08;82.18;99968.50;5087875;28;20036;-63
2022/08/17 00:44:54;;;;;;;0.55;0.55;;;;;;;20.06;81.82;99971.22;5087678;28;20040;-63
2022/08/17 00:47:20;;;;;;;0.65;0.65;;;;;;;20.09;81.82;99974.63;5087881;28;20078;-64
2022/08/17 00:49:45;;;;;;;0.63;0.63;;;;;;;20.04;82.03;99966.97;5069769;28;20028;-62
2022/08/17 00:52:19;;;;;;;0.20;0.20;;;;;;;20.05;81.94;99974.78;5087678;28;20468;-62
2022/08/17 00:54:47;;;;;;;0.63;0.63;;;;;;;20.05;81.99;99980.06;5087661;28;20103;-63
2022/08/17 00:57:28;;;;;;;0.45;0.45;;;;;;;20.06;81.67;99978.28;5087538;28;20027;-62
2022/08/17 01:00:13;;;;;;;0.20;0.20;;;;;;;20.06;81.57;99971.22;5087678;28;20021;-61
2022/08/17 01:02:41;;;;;;;0.38;0.38;;;;;;;20.04;81.63;99980.16;5087737;28;20024;-61
2022/08/17 01:05:09;;;;;;;0.20;0.20;;;;;;;20.01;82.26;99975.88;5087640;28;20024;-61
2022/08/17 01:07:35;;;;;;;0.50;0.50;;;;;;;20.02;82.47;99980.25;5087413;28;20020;-61
2022/08/17 01:10:04;;;;;;;0.75;0.70;;;;;;;20.06;82.98;99984.41;5087459;28;20137;-61
2022/08/17 01:12:33;;;;;;;0.65;0.65;;;;;;;20.09;83.50;99982.53;5087187;28;20024;-61
2022/08/17 01:14:59;;;;;;;0.20;0.20;;;;;;;20.09;83.75;99985.16;5087280;28;20098;-63
2022/08/17 01:17:26;;;;;;;0.20;0.20;;;;;;;20.13;83.68;99984.06;5087278;28;20465;-63
2022/08/17 01:19:51;;;;;;;0.40;0.40;;;;;;;20.15;83.25;99984.81;5087223;28;20028;-63
2022/08/17 01:22:22;;;;;;;0.70;0.70;;;;;;;20.17;83.02;99982.97;5087066;28;20055;-63
2022/08/17 01:24:55;;;;;;;0.20;0.20;;;;;;;20.13;82.49;99987.53;5087187;28;20029;-64
2022/08/17 01:27:21;;;;;;;0.20;0.20;;;;;;;20.12;82.47;99991.13;5087121;28;20032;-64
2022/08/17 01:29:50;;;;;;;0.30;0.30;;;;;;;20.09;82.24;99991.28;5086863;28;20388;-62
2022/08/17 01:32:17;;;;;;;0.50;0.50;;;;;;;20.06;82.30;99981.75;5068773;28;20021;-62
2022/08/17 01:34:43;;;;;;;0.30;0.30;;;;;;;20.00;82.31;99974.16;5087145;28;20031;-62
2022/08/17 01:37:09;;;;;;;0.28;0.28;;;;;;;20.01;81.97;99989.06;5086756;28;20024;-62
2022/08/17 01:39:34;;;;;;;0.32;0.32;;;;;;;19.97;82.11;99982.25;5086796;28;20020;-62
2022/08/17 01:42:24;;;;;;;0.30;0.30;;;;;;;19.91;82.02;99975.53;5086616;28;20039;-62
2022/08/17 01:44:55;;;;;;;0.20;0.20;;;;;;;19.81;82.22;99980.44;5086508;28;20052;-63
2022/08/17 01:47:21;;;;;;;0.30;0.30;;;;;;;19.74;83.02;99971.19;5086830;28;20043;-61
2022/08/17 01:49:46;;;;;;;0.75;0.75;;;;;;;19.74;83.23;99979.09;5086496;28;20465;-62
2022/08/17 01:52:12;;;;;;;0.30;0.30;;;;;;;19.75;83.33;99977.28;5086633;28;20025;-61
2022/08/17 01:54:42;;;;;;;1.10;1.10;;;;;;;19.75;83.92;99980.78;5086486;28;20039;-60
2022/08/17 01:57:09;;;;;;;0.25;0.25;;;;;;;19.72;85.16;99980.09;5086257;28;20420;-62
2022/08/17 01:59:35;;;;;;;0.57;0.57;;;;;;;19.76;84.62;99982.47;5086245;28;20380;-63
2022/08/17 02:02:01;;;;;;;0.30;0.30;;;;;;;19.77;85.28;99981.56;5086397;28;20025;-62
2022/08/17 02:04:26;;;;;;;3.50;0.90;;;;;;;19.78;86.15;99983.25;5086495;28;20027;-62
2022/08/17 02:06:51;;;;;;;0.40;0.40;;;;;;;19.87;86.02;99987.16;5086446;28;20032;-61
2022/08/17 02:09:17;;;;;;;0.68;0.68;;;;;;;19.91;86.39;99985.22;5086535;28;20025;-62
2022/08/17 02:11:43;;;;;;;0.55;0.55;;;;;;;19.98;86.31;99980.47;5086222;28;20028;-60
2022/08/17 02:14:09;;;;;;;0.20;0.20;;;;;;;19.99;86.61;99987.41;5086520;28;20020;-60
2022/08/17 02:16:39;;;;;;;2.20;2.10;;;;;;;20.03;86.49;99978.47;5086279;28;20055;-61
2022/08/17 02:19:07;;;;;;;0.30;0.30;;;;;;;20.07;85.60;99985.25;5086635;28;20028;-60
2022/08/17 02:21:33;;;;;;;1.27;1.27;;;;;;;20.13;85.52;99986.69;5085941;28;20047;-62
2022/08/17 02:23:58;;;;;;;0.25;0.25;;;;;;;20.15;86.04;99990.09;5085536;28;20421;-62
2022/08/17 02:26:24;;;;;;;0.20;0.20;;;;;;;20.17;85.96;99985.59;5086086;28;20426;-62
2022/08/17 02:28:49;;;;;;;2.40;1.17;;;;;;;20.15;86.08;99998.00;5085905;28;20027;-62
2022/08/17 02:31:15;;;;;;;1.38;1.27;;;;;;;20.12;86.22;100000.81;5085665;28;20075;-62
2022/08/17 02:33:40;;;;;;;0.30;0.30;;;;;;;20.15;85.72;99990.09;5085900;28;20028;-62
2022/08/17 02:36:10;;;;;;;0.30;0.30;;;;;;;20.09;86.12;99993.06;5085780;28;20035;-62
2022/08/17 02:38:37;;;;;;;0.75;0.75;;;;;;;20.08;85.21;99994.00;5085760;28;20024;-62
2022/08/17 02:41:03;;;;;;;0.55;0.55;;;;;;;20.04;84.91;99994.19;5085710;28;20525;-62
2022/08/17 02:43:29;;;;;;;1.20;1.00;;;;;;;19.99;85.00;99990.06;5085720;28;20084;-63
2022/08/17 02:45:54;;;;;;;0.50;0.50;;;;;;;19.92;84.66;99992.19;5085541;28;20044;-62
2022/08/17 02:48:20;;;;;;;1.25;1.15;;;;;;;19.84;84.64;99987.31;5085677;28;20028;-62
2022/08/17 02:50:46;;;;;;;0.40;0.40;;;;;;;19.76;84.61;99984.28;5085732;28;20103;-62
2022/08/17 02:53:11;;;;;;;1.02;0.93;;;;;;;19.71;84.59;99989.78;5085627;28;20484;-62
2022/08/17 02:55:39;;;;;;;0.80;0.80;;;;;;;19.62;84.54;99987.63;5085649;28;20164;-62
2022/08/17 02:58:05;;;;;;;0.30;0.30;;;;;;;19.57;84.67;99980.84;5085642;28;20024;-63
2022/08/17 03:00:34;;;;;;;1.70;1.60;;;;;;;19.56;84.63;99994.06;5085478;28;20028;-63
2022/08/17 03:03:01;;;;;;;0.93;0.93;;;;;;;19.46;84.79;99993.72;5085556;28;20029;-64
2022/08/17 03:05:29;;;;;;;1.15;1.05;;;;;;;19.37;85.77;99994.19;5085641;28;20021;-63
2022/08/17 03:07:55;;;;;;;1.23;1.23;;;;;;;19.29;85.84;99999.84;5085335;28;20016;-63
2022/08/17 03:10:23;;;;;;;3.58;1.38;;;;;;;19.24;86.12;100002.72;5085301;28;20040;-63
2022/08/17 03:12:49;;;;;;;0.80;0.80;;;;;;;19.24;85.99;99992.19;5085489;28;20055;-63
2022/08/17 03:15:18;;;;;;;0.45;0.45;;;;;;;19.25;86.18;99993.88;5085430;28;20029;-63
2022/08/17 03:17:44;;;;;;;0.47;0.47;;;;;;;19.23;86.07;100002.81;5085398;28;20089;-63
2022/08/17 03:20:11;;;;;;;2.38;2.28;;;;;;;19.16;86.44;100005.75;5085396;28;20483;-60
2022/08/17 03:22:42;;;;;;;0.98;0.98;;;;;;;19.08;86.67;100000.84;5085255;28;20037;-61
2022/08/17 03:25:10;;;;;;;0.45;0.45;;;;;;;19.01;87.04;99995.97;5067312;28;20029;-63
2022/08/17 03:27:37;;;;;;;3.33;2.42;;;;;;;19.00;86.66;99991.63;5085359;28;20036;-63
2022/08/17 03:30:04;;;;;;;0.45;0.45;;;;;;;18.97;86.88;100005.81;5085132;28;20024;-63
2022/08/17 03:32:37;;;;;;;0.30;0.30;;;;;;;18.88;87.37;99993.94;5085550;28;20020;-63
2022/08/17 03:35:05;;;;;;;0.28;0.28;;;;;;;18.92;87.37;100010.44;5085310;28;20052;-61
2022/08/17 03:37:30;;;;;;;0.20;0.20;;;;;;;18.92;87.35;100006.03;5071028;28;20021;-61
2022/08/17 03:39:56;;;;;;;0.20;0.20;;;;;;;18.97;86.88;100011.06;5089085;28;20020;-61
2022/08/17 03:42:26;;;;;;;0.20;0.20;;;;;;;18.98;87.33;100007.50;5088945;28;20035;-61
2022/08/17 03:44:54;;;;;;;0.20;0.20;;;;;;;18.94;87.06;100017.34;5088854;28;20059;-62
2022/08/17 03:58:12;;;;;;;0.65;0.65;;;;;;;19.07;86.68;100030.69;5088695;28;20027;-63
2022/08/17 04:00:38;;;;;;;1.38;1.27;;;;;;;19.12;86.77;100040.19;5088654;28;20020;-62
2022/08/17 04:03:03;;;;;;;0.30;0.30;;;;;;;19.20;86.97;100043.28;5088787;28;20039;-62
2022/08/17 04:05:29;;;;;;;0.40;0.40;;;;;;;19.19;87.26;100046.84;5088684;28;20464;-64
2022/08/17 04:07:55;;;;;;;0.20;0.20;;;;;;;19.27;86.64;100039.41;5088543;28;20029;-62
2022/08/17 04:10:20;;;;;;;0.20;0.20;;;;;;;19.28;86.89;100041.09;5088519;28;20032;-64
2022/08/17 04:12:49;;;;;;;0.63;0.63;;;;;;;19.35;87.04;100046.91;5088595;28;20043;-62
2022/08/17 04:15:15;;;;;;;0.85;0.85;;;;;;;19.37;86.66;100054.72;5088296;28;20048;-62
2022/08/17 04:17:43;;;;;;;1.05;1.05;;;;;;;19.40;86.40;100051.94;5088385;28;20024;-62
2022/08/17 04:20:09;;;;;;;0.40;0.40;;;;;;;19.37;86.62;100058.22;5088470;28;20024;-61
2022/08/17 04:22:34;;;;;;;0.30;0.30;;;;;;;19.46;86.10;100069.22;5088403;28;20545;-62
2022/08/17 04:25:13;;;;;;;0.40;0.40;;;;;;;19.46;86.33;100066.59;5088479;28;20024;-64
2022/08/17 04:27:38;;;;;;;0.20;0.20;;;;;;;19.51;85.51;100077.69;5071284;28;20078;-65
2022/08/17 04:30:06;;;;;;;0.20;0.20;;;;;;;19.50;85.53;100079.50;5088254;28;20476;-63
2022/08/17 04:32:32;;;;;;;4.45;4.13;;;;;;;19.47;85.10;100074.41;5088284;28;20044;-62
2022/08/17 04:34:57;;;;;;;0.40;0.40;;;;;;;19.51;85.29;100085.59;5088141;28;20031;-62
2022/08/17 04:37:23;;;;;;;0.73;0.63;;;;;;;19.49;85.11;100085.69;5088105;28;20495;-63
2022/08/17 04:42:05;;;;;;;0.28;0.28;;;;;;;19.51;84.62;100085.59;5087906;28;20017;-64
2022/08/17 04:42:33;;;;;;;3.63;2.28;;;;;;;19.55;84.95;100095.91;5088052;28;20111;-63
2022/08/17 04:45:01;;;;;;;0.68;0.68;;;;;;;19.57;84.81;100091.41;5088006;28;20045;-63
2022/08/17 04:47:27;;;;;;;0.30;0.30;;;;;;;19.55;84.92;100085.38;5087508;28;20082;-65
2022/08/17 04:49:52;;;;;;;0.40;0.40;;;;;;;19.62;84.67;100092.94;5088143;28;20468;-63
2022/08/17 04:52:18;;;;;;;0.38;0.38;;;;;;;19.68;84.40;100090.03;5087856;28;20031;-63
2022/08/17 04:54:43;;;;;;;1.45;1.35;;;;;;;19.73;84.20;100095.88;5087745;28;20033;-63
2022/08/17 04:57:08;;;;;;;0.60;0.60;;;;;;;19.77;83.81;100094.81;5069865;28;20027;-63
2022/08/17 04:59:34;;;;;;;0.30;0.30;;;;;;;19.79;83.60;100100.81;5088065;28;20480;-63
2022/08/17 05:01:59;;;;;;;0.20;0.20;;;;;;;19.82;83.15;100111.19;5069003;28;20036;-63
2022/08/17 05:04:25;;;;;;;0.20;0.20;;;;;;;19.85;83.49;100104.94;5069565;28;20044;-64
2022/08/17 05:06:53;;;;;;;0.82;0.82;;;;;;;19.94;83.49;100099.19;5087636;28;20032;-63
2022/08/17 05:09:18;;;;;;;0.20;0.20;;;;;;;19.97;83.24;100106.06;5087445;28;20028;-63
2022/08/17 05:11:44;;;;;;;0.50;0.50;;;;;;;19.98;82.54;100104.28;5087561;28;20020;-64
2022/08/17 05:14:10;;;;;;;0.20;0.20;;;;;;;19.99;82.38;100101.56;5087057;28;20028;-62
2022/08/17 05:16:35;;;;;;;0.50;0.50;;;;;;;20.06;82.28;100108.22;5087179;28;20031;-61
2022/08/17 05:19:01;;;;;;;0.35;0.35;;;;;;;20.10;82.07;100105.44;5087416;28;20088;-61
2022/08/17 05:21:27;;;;;;;0.40;0.40;;;;;;;20.21;82.01;100095.16;5087518;28;20031;-61
2022/08/17 05:23:53;;;;;;;0.32;0.32;;;;;;;20.35;82.14;100091.78;5087574;28;20024;-62
2022/08/17 05:26:20;;;;;;;0.20;0.20;;;;;;;20.38;81.75;100098.69;5087676;28;20032;-61
2022/08/17 05:28:46;;;;;;;0.30;0.30;;;;;;;20.39;81.65;100111.78;5087342;28;20024;-61
2022/08/17 05:31:12;;;;;;;0.20;0.20;;;;;;;20.40;81.25;100110.00;5087044;28;20025;-61
2022/08/17 05:33:40;;;;;;;0.20;0.20;;;;;;;20.31;80.85;100114.84;5086994;28;20032;-61
2022/08/17 05:36:10;;;;;;;1.73;1.02;;;;;;;20.37;80.67;100115.41;5086887;28;20016;-61
2022/08/17 05:38:36;;;;;;;0.30;0.30;;;;;;;20.35;80.85;100112.03;5069022;28;20032;-61
2022/08/17 05:41:05;;;;;;;0.40;0.40;;;;;;;20.43;80.45;100112.47;5086906;28;20375;-60
2022/08/17 05:43:34;;;;;;;0.43;0.43;;;;;;;20.50;79.86;100112.97;5086773;28;20080;-59
2022/08/17 05:46:19;;;;;;;0.20;0.20;;;;;;;20.55;79.19;100114.44;5086506;28;20048;-59
2022/08/17 05:48:57;;;;;;;0.20;0.20;;;;;;;20.50;78.90;100091.88;5086949;28;20029;-60
2022/08/17 05:51:26;;;;;;;0.63;0.63;;;;;;;20.71;78.68;100116.22;5087011;28;20046;-60
2022/08/17 05:53:51;;;;;;;0.30;0.30;;;;;;;20.79;77.77;100116.63;5086903;28;20025;-60
2022/08/17 05:56:38;;;;;;;0.30;0.30;;;;;;;20.88;76.69;100114.41;5068555;28;20028;-60
2022/08/17 05:59:14;;;;;;;0.20;0.20;;;;;;;20.97;75.86;100120.97;5086030;28;20020;-60
2022/08/17 06:01:57;;;;;;;0.20;0.20;;;;;;;21.17;76.76;100125.09;5086770;28;20028;-61
2022/08/17 06:04:32;;;;;;;0.75;0.75;;;;;;;21.33;75.85;100126.84;5086746;28;20179;-60
2022/08/17 06:07:10;;;;;;;0.20;0.20;;;;;;;21.52;74.81;100134.53;5086552;28;20094;-60
2022/08/17 06:09:44;;;;;;;1.23;1.15;;;;;;;21.55;72.50;100115.88;5085968;28;20476;-61
2022/08/17 06:12:41;;;;;;;0.20;0.20;;;;;;;21.68;73.15;100129.19;5086502;28;20025;-59
2022/08/17 06:15:18;;;;;;;0.68;0.68;;;;;;;21.84;73.39;100125.69;5086331;28;20506;-60
2022/08/17 06:17:44;;;;;;;0.25;0.25;;;;;;;21.88;73.95;100120.13;5068918;28;20326;-60
2022/08/17 06:20:13;;;;;;;0.68;0.50;;;;;;;21.90;73.01;100122.66;5086148;28;20028;-60
2022/08/17 06:22:48;;;;;;;0.10;0.10;;;;;;;21.90;72.41;100126.16;5086431;28;20028;-60
2022/08/17 06:25:17;;;;;;;0.50;0.50;;;;;;;21.92;72.80;100131.34;5086344;28;20025;-60
2022/08/17 06:27:55;;;;;;;5.35;1.85;;;;;;;21.97;73.02;100125.78;5086175;28;20024;-60
2022/08/17 06:30:27;;;;;;;0.20;0.20;;;;;;;21.86;72.15;100127.28;5086117;28;20025;-59
2022/08/17 06:32:58;;;;;;;0.85;0.85;;;;;;;21.79;72.59;100136.50;5086265;28;20029;-59
2022/08/17 06:35:42;;;;;;;0.20;0.20;;;;;;;21.89;72.72;100126.25;5086301;28;20021;-59
2022/08/17 06:38:13;;;;;;;0.50;0.50;;;;;;;21.87;70.98;100128.97;5086110;28;20535;-60
2022/08/17 06:40:57;;;;;;;0.20;0.20;;;;;;;21.84;71.21;100139.72;5086172;28;20457;-59
2022/08/17 06:43:44;;;;;;;0.38;0.38;;;;;;;21.87;71.35;100142.19;5086036;28;20024;-59
2022/08/17 06:46:20;;;;;;;1.00;0.90;;;;;;;21.86;71.06;100147.56;5085700;28;20049;-60
2022/08/17 06:48:57;;;;;;;0.20;0.20;;;;;;;22.03;71.80;100135.97;5086004;28;20025;-58
2022/08/17 06:51:30;;;;;;;0.30;0.30;;;;;;;22.75;71.93;100156.22;5085867;28;20474;-58
2022/08/17 06:54:04;;;;;;;0.20;0.20;;;;;;;23.17;68.99;100149.19;5085766;28;20034;-59
2022/08/17 06:56:47;;;;;;;0.30;0.30;;;;;;;23.69;67.21;100150.16;5085925;28;20024;-60
2022/08/17 06:59:18;;;;;;;0.68;0.68;;;;;;;24.30;68.46;100155.81;5085818;28;20035;-59
2022/08/17 07:01:45;;;;;;;0.53;0.53;;;;;;;24.80;66.82;100154.94;5085829;28;20055;-59
2022/08/17 07:04:22;;;;;;;0.32;0.32;;;;;;;25.05;64.56;100161.97;5085472;28;20254;-59
2022/08/17 07:06:55;;;;;;;0.20;0.20;;;;;;;25.42;63.99;100155.72;5085802;28;20020;-59
2022/08/17 07:09:34;;;;;;;0.20;0.20;;;;;;;25.59;64.28;100150.94;5085519;28;20124;-60
2022/08/17 07:12:15;;;;;;;0.20;0.20;;;;;;;25.50;61.44;100152.47;5085837;28;20024;-60
2022/08/17 07:14:59;;;;;;;0.60;0.60;;;;;;;25.92;61.24;100162.63;5085794;28;20059;-60
2022/08/17 07:17:26;;;;;;;0.13;0.13;;;;;;;26.55;61.61;100163.97;5085735;28;20467;-60
2022/08/17 07:20:05;;;;;;;0.65;0.50;;;;;;;27.14;59.02;100166.38;5085695;28;20021;-60
2022/08/17 07:22:48;;;;;;;0.10;0.10;;;;;;;27.70;58.34;100172.44;5085694;28;20085;-60
2022/08/17 07:25:17;;;;;;;0.57;0.57;;;;;;;28.37;58.03;100181.91;5085637;28;20020;-59
2022/08/17 07:27:54;;;;;;;0.75;0.75;;;;;;;28.89;56.68;100177.38;5067487;28;20025;-60
2022/08/17 07:30:28;;;;;;;0.52;0.52;;;;;;;29.46;55.78;100174.03;5085245;28;20027;-60
2022/08/17 07:33:09;;;;;;;1.55;1.45;;;;;;;30.08;55.53;100186.19;5085520;28;20026;-60
2022/08/17 07:35:40;;;;;;;0.20;0.20;;;;;;;30.22;49.70;100181.34;5085559;28;20112;-60
2022/08/17 07:38:53;;;;;;;0.10;0.10;;;;;;;29.84;47.37;100190.22;5085550;28;20026;-60
2022/08/17 07:41:19;;;;;;;0.30;0.30;;;;;;;29.72;49.87;100191.34;4984321;28;20043;-60
2022/08/17 07:43:51;;;;;;;0.43;0.43;;;;;;;29.04;48.06;100188.56;4984327;28;20038;-60
2022/08/17 07:49:39;;;;;;;0.45;0.45;;;;;;;27.68;50.57;100206.41;4984343;28;20057;-60
2022/08/17 07:52:10;;;;;;;1.35;1.25;;;;;;;27.22;50.84;100206.56;4984243;28;20053;-60
2022/08/17 07:54:39;;;;;;;0.20;0.20;;;;;;;26.70;51.84;100203.63;4984291;28;20086;-60
2022/08/17 07:57:07;;;;;;;0.60;0.60;;;;;;;26.14;52.19;100208.81;4984263;28;20086;-60
2022/08/17 07:59:35;;;;;;;0.10;0.10;;;;;;;25.76;53.17;100215.28;4984412;28;20058;-60
2022/08/17 08:02:27;;;;;;;0.65;0.30;;;;;;;25.38;54.22;100210.06;4984128;28;20043;-61
2022/08/17 08:05:00;;;;;;;;;;;;;;;25.26;54.39;100214.47;4984655;28;20059;-60
2022/08/17 08:07:33;;;;;;;1.38;1.38;;;;;;;24.84;55.17;100217.47;4983979;28;19910;-60
2022/08/17 08:10:26;;;;;;;0.10;0.10;;;;;;;24.62;56.03;100221.66;4984177;28;20064;-60
2022/08/17 08:13:06;;;;;;;0.10;0.10;;;;;;;24.88;56.49;100232.22;4981662;28;20060;-60
2022/08/17 08:15:38;;;;;;;0.30;0.30;;;;;;;25.01;56.10;100234.88;5053111;28;20062;-59
2022/08/17 08:18:20;;;;;;;0.10;0.10;;;;;;;25.16;56.06;100240.84;5085182;28;20021;-59
2022/08/17 08:20:50;;;;;;;0.35;0.35;;;;;;;25.11;55.37;100238.53;5084937;28;20021;-59
2022/08/17 08:23:21;;;;;;;0.50;0.50;;;;;;;24.89;56.24;100228.63;5088001;28;20028;-59
2022/08/17 08:26:21;;;;;;;0.20;0.20;;;;;;;24.84;56.59;100230.75;5088787;28;20024;-60
2022/08/17 08:29:17;;;;;;;0.43;0.43;;;;;;;24.96;56.72;100240.50;5088567;28;20522;-60
2022/08/17 08:32:00;;;;;;;0.20;0.20;;;;;;;25.46;56.10;100246.69;5088401;28;20042;-61
2022/08/17 08:34:31;;;;;;;0.45;0.45;;;;;;;25.55;55.69;100247.81;5088376;28;20095;-60
2022/08/17 08:37:12;;;;;;;0.20;0.20;;;;;;;25.68;55.33;100250.41;5088595;28;20039;-60
2022/08/17 08:39:44;;;;;;;0.20;0.20;;;;;;;26.35;54.91;100242.72;5095274;22;20044;-67
2022/08/17 08:42:36;;;;;;;0.63;0.63;;;;;;;26.83;53.04;100244.31;5086401;28;20074;-67
2022/08/17 08:45:19;;;;;;;0.90;0.90;;;;;;;27.89;52.71;100245.56;5069720;28;20031;-68
2022/08/17 08:48:06;;;;;;;4.47;1.98;;;;;;;29.17;51.76;100241.72;5087591;28;20055;-68
2022/08/17 08:50:41;;;;;;;0.10;0.10;;;;;;;29.41;46.45;100246.66;5087559;28;20556;-68
2022/08/17 08:53:57;;;;;;;0.40;0.40;;;;;;;28.58;45.17;100250.41;5070099;28;20060;-67
2022/08/17 08:56:41;;;;;;;0.10;0.10;;;;;;;28.14;46.80;100255.94;5045068;28;20511;-68
2022/08/17 08:59:20;;;;;;;0.50;0.50;;;;;;;28.20;47.18;100256.25;5087942;28;20032;-67
2022/08/17 09:02:14;;;;;;;0.45;0.45;;;;;;;28.45;47.53;100248.81;5087752;28;20056;-67
2022/08/17 09:04:53;;;;;;;0.65;0.65;;;;;;;28.83;46.57;100238.38;5087701;28;20050;-68
2022/08/17 09:07:42;;;;;;;0.10;0.10;;;;;;;28.64;47.04;100243.69;5087779;28;20035;-67
2022/08/17 09:10:28;;;;;;;0.10;0.10;;;;;;;28.40;46.81;100248.38;5087608;28;20115;-67
2022/08/17 09:13:22;;;;;;;0.30;0.30;;;;;;;28.92;47.24;100255.44;5087564;28;20024;-68
2022/08/17 09:15:58;;;;;;;0.10;0.10;;;;;;;29.18;46.14;100246.09;5087593;28;20024;-68
2022/08/17 09:18:32;;;;;;;0.47;0.47;;;;;;;29.30;45.58;100247.63;5087710;28;20044;-68
2022/08/17 09:21:30;;;;;;;0.20;0.20;;;;;;;29.24;45.42;100252.69;5087417;28;20024;-68
2022/08/17 09:24:08;;;;;;;0.20;0.20;;;;;;;29.43;45.13;100249.19;5031910;28;20029;-68
2022/08/17 09:26:49;;;;;;;0.20;0.20;;;;;;;29.59;45.53;100242.44;5087404;28;20020;-67
2022/08/17 09:29:16;;;;;;;0.20;0.20;;;;;;;29.76;45.41;100251.59;5087243;28;20032;-68
2022/08/17 09:32:02;;;;;;;0.45;0.45;;;;;;;30.07;42.67;100254.06;5086089;28;20029;-68
2022/08/17 09:34:43;;;;;;;0.22;0.22;;;;;;;29.38;43.80;100260.31;5085929;28;20558;-68
2022/08/17 09:37:18;;;;;;;0.28;0.28;;;;;;;28.81;44.73;100260.88;5068671;28;20040;-67
2022/08/17 09:40:05;;;;;;;0.30;0.30;;;;;;;28.13;45.69;100259.59;5086934;28;20094;-68
2022/08/17 09:42:53;;;;;;;0.10;0.10;;;;;;;28.25;46.02;100263.00;5086903;28;20021;-68
2022/08/17 09:45:37;;;;;;;0.17;0.17;;;;;;;28.19;46.82;100259.06;5086819;28;20031;-68
2022/08/17 09:48:32;;;;;;;0.10;0.10;;;;;;;28.39;46.51;100260.03;5087022;28;20027;-68
2022/08/17 09:51:11;;;;;;;0.10;0.10;;;;;;;28.75;46.07;100254.28;5086824;28;20029;-68
2022/08/17 09:53:38;;;;;;;0.20;0.20;;;;;;;28.74;45.54;100262.44;5085635;28;20039;-67
2022/08/17 09:56:27;;;;;;;0.20;0.20;;;;;;;28.32;46.04;100264.22;5086555;28;20027;-67
2022/08/17 09:59:18;;;;;;;0.60;0.60;;;;;;;27.51;46.95;100266.41;5086017;28;20365;-68
2022/08/17 10:02:03;;;;;;;;;;;;;;;26.81;49.14;100274.66;5086830;28;20025;-68
2022/08/17 10:04:50;;;;;;;0.10;0.10;;;;;;;26.89;49.63;100264.25;5068316;28;19930;-68
2022/08/17 10:07:32;;;;;;;1.15;1.05;;;;;;;26.89;48.85;100264.25;5068597;28;20028;-68
2022/08/17 10:10:04;;;;;;;0.68;0.68;;;;;;;26.24;49.55;100273.66;5086621;28;20035;-69
2022/08/17 10:12:42;;;;;;;1.30;0.95;;;;;;;25.73;51.26;100283.69;5086286;28;20024;-66
2022/08/17 10:15:45;;;;;;;0.45;0.45;;;;;;;25.56;51.48;100278.75;5086317;28;20028;-66
2022/08/17 10:18:45;;;;;;;0.10;0.10;;;;;;;25.62;52.25;100276.50;5086547;28;20388;-66
2022/08/17 10:26:58;;;;;;;0.45;0.45;;;;;;;25.48;53.01;100268.69;5086361;28;20116;-67
2022/08/17 10:29:31;;;;;;;0.40;0.40;;;;;;;25.40;53.71;100279.88;5086035;28;20024;-69
2022/08/17 10:32:08;;;;;;;0.40;0.40;;;;;;;25.51;54.11;100273.78;5086077;28;20048;-68
2022/08/17 10:35:11;;;;;;;0.73;0.73;;;;;;;25.50;54.08;100272.91;5086240;28;20073;-66
2022/08/17 10:37:48;;;;;;;0.20;0.20;;;;;;;25.44;54.18;100276.03;5086030;28;20016;-67
2022/08/17 10:40:20;;;;;;;0.10;0.10;;;;;;;25.40;54.28;100273.72;5085715;28;20055;-68
2022/08/17 10:42:55;;;;;;;0.50;0.50;;;;;;;25.37;54.44;100269.47;5067935;28;20042;-67
2022/08/17 10:46:03;;;;;;;0.13;0.13;;;;;;;26.05;54.39;100257.41;5085425;28;20031;-68
2022/08/17 10:48:36;;;;;;;0.10;0.10;;;;;;;26.41;52.95;100268.88;5038200;28;20062;-66
2022/08/17 10:51:36;;;;;;;0.40;0.40;;;;;;;26.29;52.02;100269.78;5085426;28;20518;-66
2022/08/17 10:54:23;;;;;;;0.40;0.40;;;;;;;26.15;52.05;100273.53;5067629;28;20028;-66
2022/08/17 10:56:49;;;;;;;0.10;0.10;;;;;;;25.92;52.79;100269.00;5085028;28;20033;-66
2022/08/17 10:59:33;;;;;;;0.10;0.10;;;;;;;25.74;53.08;100277.41;5067448;28;20024;-68
2022/08/17 11:02:11;;;;;;;0.55;0.55;;;;;;;25.71;53.36;100277.63;5085215;28;20020;-66
2022/08/17 11:05:07;;;;;;;0.22;0.22;;;;;;;25.50;53.67;100269.41;5085583;28;20030;-68
2022/08/17 11:07:42;;;;;;;1.75;1.42;;;;;;;25.38;54.34;100271.19;5085609;28;20380;-66
2022/08/17 11:10:20;;;;;;;0.50;0.50;;;;;;;25.43;53.96;100282.28;5067491;28;20383;-66
2022/08/17 11:13:21;;;;;;;0.30;0.30;;;;;;;25.05;55.01;100280.66;5085546;28;20055;-66
2022/08/17 11:16:24;;;;;;;0.65;0.65;;;;;;;25.01;55.78;100274.69;5080855;28;20036;-66
2022/08/17 11:19:10;;;;;;;0.13;0.13;;;;;;;25.44;56.31;100280.50;5085530;28;20451;-68
2022/08/17 11:21:58;;;;;;;0.85;0.85;;;;;;;25.94;54.37;100285.66;5085450;28;20092;-66
2022/08/17 11:24:30;;;;;;;0.73;0.73;;;;;;;25.76;54.57;100289.72;5085346;28;20056;-67
2022/08/17 11:27:25;;;;;;;0.57;0.57;;;;;;;25.37;54.86;100285.41;5085114;28;20033;-67
2022/08/17 11:29:55;;;;;;;0.30;0.30;;;;;;;24.99;55.42;100281.91;5058662;28;20527;-66
2022/08/17 11:32:40;;;;;;;0.47;0.47;;;;;;;24.86;56.51;100298.69;5066899;28;20021;-66
2022/08/17 11:35:21;;;;;;;0.70;0.70;;;;;;;24.76;56.95;100297.66;5084570;28;20029;-67
2022/08/17 11:38:10;;;;;;;0.20;0.20;;;;;;;24.63;57.22;100292.38;5085434;28;20060;-67
2022/08/17 11:41:15;;;;;;;1.95;1.80;;;;;;;24.44;58.39;100296.28;5085107;28;20048;-66
2022/08/17 11:44:31;;;;;;;0.20;0.20;;;;;;;24.53;59.11;100300.13;5085344;28;20032;-66
2022/08/17 11:53:05;;;;;;;0.20;0.20;;;;;;;24.64;58.56;100302.00;4983825;28;20070;-66
2022/08/17 11:55:31;;;;;;;0.20;0.20;;;;;;;24.45;58.24;100303.31;4983963;28;20407;-66
2022/08/17 11:57:59;;;;;;;0.45;0.45;;;;;;;24.25;59.01;100300.19;4986402;28;20041;-66
2022/08/17 12:00:57;;;;;;;0.10;0.10;;;;;;;24.17;59.52;100307.81;4987501;28;20031;-66
2022/08/17 12:03:42;;;;;;;0.10;0.10;;;;;;;24.16;59.86;100310.59;4976080;28;20049;-66
2022/08/17 12:06:19;;;;;;;1.65;1.55;;;;;;;24.14;59.17;100314.16;4987592;28;20042;-67
2022/08/17 12:08:52;;;;;;;0.20;0.20;;;;;;;24.03;59.23;100306.06;4987471;28;20059;-66
2022/08/17 12:11:44;;;;;;;0.38;0.38;;;;;;;23.96;59.78;100310.09;4987349;28;20047;-66
2022/08/17 12:14:15;;;;;;;3.50;0.82;;;;;;;23.93;59.28;100312.97;4979730;28;20035;-66
2022/08/17 12:16:43;;;;;;;0.60;0.60;;;;;;;23.71;60.32;100304.63;4987465;28;20031;-66
2022/08/17 12:19:20;;;;;;;0.20;0.20;;;;;;;23.60;60.97;100307.13;4987099;28;20138;-66
2022/08/17 12:22:00;;;;;;;0.30;0.30;;;;;;;23.64;61.20;100311.28;4987311;28;20073;-66
2022/08/17 12:24:35;;;;;;;0.10;0.10;;;;;;;23.69;61.23;100305.69;4987377;28;20152;-66
2022/08/17 12:27:04;;;;;;;0.30;0.30;;;;;;;23.73;60.63;100289.47;5051721;28;20028;-67